sensor_id;sensor_type;location;lat;lon;timestamp;P1;durP1;ratioP1;P2;durP2;ratioP2
55003;SDS011;40900;52.710;6.438;2022-10-16T00:01:14;9.95;;;3.05;;
55003;SDS011;40900;52.710;6.438;2022-10-16T00:03:41;12.65;;;3.42;;
55003;SDS011;40900;52.710;6.438;2022-10-16T00:06:07;11.88;;;3.33;;
55003;SDS011;40900;52.710;6.438;2022-10-16T00:08:34;12.32;;;3.03;;
55003;SDS011;40900;52.710;6.438;2022-10-16T00:11:05;7.50;;;2.25;;
55003;SDS011;40900;52.710;6.438;2022-10-16T00:13:32;11.10;;;2.80;;
55003;SDS011;40900;52.710;6.438;2022-10-16T00:15:59;7.47;;;2.42;;
55003;SDS011;40900;52.710;6.438;2022-10-16T00:18:26;7.00;;;2.20;;
55003;SDS011;40900;52.710;6.438;2022-10-16T00:20:52;9.20;;;2.22;;
55003;SDS011;40900;52.710;6.438;2022-10-16T00:23:18;5.40;;;1.90;;
55003;SDS011;40900;52.710;6.438;2022-10-16T00:25:45;9.15;;;2.45;;
55003;SDS011;40900;52.710;6.438;2022-10-16T00:28:11;6.78;;;2.38;;
55003;SDS011;40900;52.710;6.438;2022-10-16T00:30:37;7.95;;;2.10;;
55003;SDS011;40900;52.710;6.438;2022-10-16T00:33:03;8.05;;;2.47;;
55003;SDS011;40900;52.710;6.438;2022-10-16T00:35:30;8.02;;;2.63;;
55003;SDS011;40900;52.710;6.438;2022-10-16T00:37:56;8.77;;;2.40;;
55003;SDS011;40900;52.710;6.438;2022-10-16T00:40:22;6.80;;;2.10;;
55003;SDS011;40900;52.710;6.438;2022-10-16T00:42:48;11.05;;;3.17;;
55003;SDS011;40900;52.710;6.438;2022-10-16T00:45:14;12.52;;;3.22;;
55003;SDS011;40900;52.710;6.438;2022-10-16T00:47:42;7.20;;;2.20;;
55003;SDS011;40900;52.710;6.438;2022-10-16T00:52:44;7.93;;;2.42;;
55003;SDS011;40900;52.710;6.438;2022-10-16T00:55:11;7.65;;;2.70;;
55003;SDS011;40900;52.710;6.438;2022-10-16T00:57:37;6.50;;;1.95;;
55003;SDS011;40900;52.710;6.438;2022-10-16T01:00:05;19.50;;;2.70;;
55003;SDS011;40900;52.710;6.438;2022-10-16T01:02:32;6.68;;;2.05;;
55003;SDS011;40900;52.710;6.438;2022-10-16T01:04:58;7.97;;;2.20;;
55003;SDS011;40900;52.710;6.438;2022-10-16T01:12:50;9.05;;;2.30;;
55003;SDS011;40900;52.710;6.438;2022-10-16T01:15:21;10.18;;;2.20;;
55003;SDS011;40900;52.710;6.438;2022-10-16T01:18:00;6.90;;;1.95;;
55003;SDS011;40900;52.710;6.438;2022-10-16T01:20:30;9.07;;;2.42;;
55003;SDS011;40900;52.710;6.438;2022-10-16T01:25:25;9.98;;;2.72;;
55003;SDS011;40900;52.710;6.438;2022-10-16T01:27:55;8.98;;;2.50;;
55003;SDS011;40900;52.710;6.438;2022-10-16T01:30:23;7.80;;;2.30;;
55003;SDS011;40900;52.710;6.438;2022-10-16T01:32:59;7.25;;;2.35;;
55003;SDS011;40900;52.710;6.438;2022-10-16T01:35:27;9.95;;;2.60;;
55003;SDS011;40900;52.710;6.438;2022-10-16T01:37:57;5.72;;;2.42;;
55003;SDS011;40900;52.710;6.438;2022-10-16T01:40:26;6.88;;;2.40;;
55003;SDS011;40900;52.710;6.438;2022-10-16T01:42:54;6.72;;;2.55;;
55003;SDS011;40900;52.710;6.438;2022-10-16T01:45:21;8.25;;;2.70;;
55003;SDS011;40900;52.710;6.438;2022-10-16T01:47:48;10.93;;;3.50;;
55003;SDS011;40900;52.710;6.438;2022-10-16T01:50:15;9.18;;;2.50;;
55003;SDS011;40900;52.710;6.438;2022-10-16T01:52:43;9.20;;;2.60;;
55003;SDS011;40900;52.710;6.438;2022-10-16T01:55:11;6.47;;;2.83;;
55003;SDS011;40900;52.710;6.438;2022-10-16T01:57:38;8.23;;;2.67;;
55003;SDS011;40900;52.710;6.438;2022-10-16T02:00:07;8.38;;;3.03;;
55003;SDS011;40900;52.710;6.438;2022-10-16T02:02:34;11.75;;;2.70;;
55003;SDS011;40900;52.710;6.438;2022-10-16T02:07:38;6.95;;;3.00;;
55003;SDS011;40900;52.710;6.438;2022-10-16T02:10:07;10.60;;;2.85;;
55003;SDS011;40900;52.710;6.438;2022-10-16T02:12:33;5.30;;;2.78;;
55003;SDS011;40900;52.710;6.438;2022-10-16T02:15:00;6.47;;;2.88;;
55003;SDS011;40900;52.710;6.438;2022-10-16T02:17:27;7.75;;;2.72;;
55003;SDS011;40900;52.710;6.438;2022-10-16T02:19:54;10.02;;;3.05;;
55003;SDS011;40900;52.710;6.438;2022-10-16T02:22:31;10.68;;;3.33;;
55003;SDS011;40900;52.710;6.438;2022-10-16T02:24:58;7.63;;;2.95;;
55003;SDS011;40900;52.710;6.438;2022-10-16T02:35:10;8.27;;;2.80;;
55003;SDS011;40900;52.710;6.438;2022-10-16T02:37:37;4.70;;;2.50;;
55003;SDS011;40900;52.710;6.438;2022-10-16T02:40:04;7.07;;;2.88;;
55003;SDS011;40900;52.710;6.438;2022-10-16T02:42:35;8.18;;;2.88;;
55003;SDS011;40900;52.710;6.438;2022-10-16T02:45:02;5.50;;;2.90;;
55003;SDS011;40900;52.710;6.438;2022-10-16T02:47:28;9.25;;;3.00;;
55003;SDS011;40900;52.710;6.438;2022-10-16T02:49:54;4.70;;;2.63;;
55003;SDS011;40900;52.710;6.438;2022-10-16T02:52:20;5.47;;;2.30;;
55003;SDS011;40900;52.710;6.438;2022-10-16T02:54:47;5.57;;;2.70;;
55003;SDS011;40900;52.710;6.438;2022-10-16T02:57:13;6.28;;;2.45;;
55003;SDS011;40900;52.710;6.438;2022-10-16T02:59:39;7.10;;;2.95;;
55003;SDS011;40900;52.710;6.438;2022-10-16T03:02:05;4.38;;;2.58;;
55003;SDS011;40900;52.710;6.438;2022-10-16T03:04:31;12.48;;;3.30;;
55003;SDS011;40900;52.710;6.438;2022-10-16T03:06:57;6.13;;;2.50;;
55003;SDS011;40900;52.710;6.438;2022-10-16T03:09:23;9.43;;;2.83;;
55003;SDS011;40900;52.710;6.438;2022-10-16T03:11:49;12.73;;;2.80;;
55003;SDS011;40900;52.710;6.438;2022-10-16T03:14:15;8.32;;;3.30;;
55003;SDS011;40900;52.710;6.438;2022-10-16T03:16:41;4.30;;;2.47;;
55003;SDS011;40900;52.710;6.438;2022-10-16T03:19:07;5.55;;;2.67;;
55003;SDS011;40900;52.710;6.438;2022-10-16T03:21:34;7.65;;;2.47;;
55003;SDS011;40900;52.710;6.438;2022-10-16T03:24:00;7.55;;;2.88;;
55003;SDS011;40900;52.710;6.438;2022-10-16T03:26:26;6.35;;;2.47;;
55003;SDS011;40900;52.710;6.438;2022-10-16T03:28:52;6.32;;;2.83;;
55003;SDS011;40900;52.710;6.438;2022-10-16T03:31:18;5.43;;;2.80;;
55003;SDS011;40900;52.710;6.438;2022-10-16T03:33:44;11.38;;;3.97;;
55003;SDS011;40900;52.710;6.438;2022-10-16T03:36:10;4.68;;;2.60;;
55003;SDS011;40900;52.710;6.438;2022-10-16T03:38:36;5.22;;;3.20;;
55003;SDS011;40900;52.710;6.438;2022-10-16T03:41:02;8.82;;;3.67;;
55003;SDS011;40900;52.710;6.438;2022-10-16T03:43:29;6.47;;;3.33;;
55003;SDS011;40900;52.710;6.438;2022-10-16T03:45:55;5.07;;;2.63;;
55003;SDS011;40900;52.710;6.438;2022-10-16T03:48:21;7.70;;;2.92;;
55003;SDS011;40900;52.710;6.438;2022-10-16T03:50:47;6.35;;;3.40;;
55003;SDS011;40900;52.710;6.438;2022-10-16T03:53:14;9.48;;;3.40;;
55003;SDS011;40900;52.710;6.438;2022-10-16T03:55:43;5.72;;;3.38;;
55003;SDS011;40900;52.710;6.438;2022-10-16T03:58:09;6.47;;;3.28;;
55003;SDS011;40900;52.710;6.438;2022-10-16T04:00:35;7.65;;;3.60;;
55003;SDS011;40900;52.710;6.438;2022-10-16T04:03:01;7.38;;;3.88;;
55003;SDS011;40900;52.710;6.438;2022-10-16T04:05:27;7.25;;;3.38;;
55003;SDS011;40900;52.710;6.438;2022-10-16T04:07:53;10.50;;;3.80;;
55003;SDS011;40900;52.710;6.438;2022-10-16T04:10:20;7.20;;;3.70;;
55003;SDS011;40900;52.710;6.438;2022-10-16T04:12:46;4.95;;;3.45;;
55003;SDS011;40900;52.710;6.438;2022-10-16T04:15:12;8.93;;;3.28;;
55003;SDS011;40900;52.710;6.438;2022-10-16T04:17:38;8.05;;;3.40;;
55003;SDS011;40900;52.710;6.438;2022-10-16T04:20:04;9.43;;;3.83;;
55003;SDS011;40900;52.710;6.438;2022-10-16T04:22:30;6.40;;;3.20;;
55003;SDS011;40900;52.710;6.438;2022-10-16T04:24:56;6.28;;;3.38;;
55003;SDS011;40900;52.710;6.438;2022-10-16T04:27:22;8.07;;;3.80;;
55003;SDS011;40900;52.710;6.438;2022-10-16T04:29:49;7.57;;;3.83;;
55003;SDS011;40900;52.710;6.438;2022-10-16T04:32:15;6.78;;;3.45;;
55003;SDS011;40900;52.710;6.438;2022-10-16T04:34:41;5.75;;;3.30;;
55003;SDS011;40900;52.710;6.438;2022-10-16T04:37:07;8.27;;;3.60;;
55003;SDS011;40900;52.710;6.438;2022-10-16T04:39:33;7.78;;;3.80;;
55003;SDS011;40900;52.710;6.438;2022-10-16T04:41:59;7.05;;;4.15;;
55003;SDS011;40900;52.710;6.438;2022-10-16T04:44:25;9.32;;;4.25;;
55003;SDS011;40900;52.710;6.438;2022-10-16T04:46:51;6.40;;;3.55;;
55003;SDS011;40900;52.710;6.438;2022-10-16T04:49:17;5.25;;;3.45;;
55003;SDS011;40900;52.710;6.438;2022-10-16T04:51:44;8.05;;;4.00;;
55003;SDS011;40900;52.710;6.438;2022-10-16T04:54:10;10.52;;;3.80;;
55003;SDS011;40900;52.710;6.438;2022-10-16T04:56:36;5.80;;;3.55;;
55003;SDS011;40900;52.710;6.438;2022-10-16T04:59:08;6.18;;;3.75;;
55003;SDS011;40900;52.710;6.438;2022-10-16T05:01:34;6.85;;;3.78;;
55003;SDS011;40900;52.710;6.438;2022-10-16T05:04:00;5.53;;;3.40;;
55003;SDS011;40900;52.710;6.438;2022-10-16T05:06:26;5.75;;;3.97;;
55003;SDS011;40900;52.710;6.438;2022-10-16T05:08:53;7.78;;;3.55;;
55003;SDS011;40900;52.710;6.438;2022-10-16T05:11:19;7.72;;;3.78;;
55003;SDS011;40900;52.710;6.438;2022-10-16T05:13:45;8.07;;;3.70;;
55003;SDS011;40900;52.710;6.438;2022-10-16T05:16:11;12.10;;;4.10;;
55003;SDS011;40900;52.710;6.438;2022-10-16T05:18:37;8.10;;;3.60;;
55003;SDS011;40900;52.710;6.438;2022-10-16T05:21:03;10.13;;;3.80;;
55003;SDS011;40900;52.710;6.438;2022-10-16T05:23:30;6.97;;;3.60;;
55003;SDS011;40900;52.710;6.438;2022-10-16T05:25:57;7.50;;;3.90;;
55003;SDS011;40900;52.710;6.438;2022-10-16T05:28:24;7.03;;;3.17;;
55003;SDS011;40900;52.710;6.438;2022-10-16T05:30:50;9.73;;;3.85;;
55003;SDS011;40900;52.710;6.438;2022-10-16T05:33:16;5.93;;;3.25;;
55003;SDS011;40900;52.710;6.438;2022-10-16T05:35:42;9.52;;;3.38;;
55003;SDS011;40900;52.710;6.438;2022-10-16T05:38:09;7.60;;;3.90;;
55003;SDS011;40900;52.710;6.438;2022-10-16T05:40:35;6.18;;;3.20;;
55003;SDS011;40900;52.710;6.438;2022-10-16T05:43:01;4.85;;;3.38;;
55003;SDS011;40900;52.710;6.438;2022-10-16T05:45:27;8.32;;;3.22;;
55003;SDS011;40900;52.710;6.438;2022-10-16T05:47:53;7.60;;;3.60;;
55003;SDS011;40900;52.710;6.438;2022-10-16T05:50:19;6.90;;;3.33;;
55003;SDS011;40900;52.710;6.438;2022-10-16T05:52:45;9.10;;;3.53;;
55003;SDS011;40900;52.710;6.438;2022-10-16T05:55:11;9.68;;;3.20;;
55003;SDS011;40900;52.710;6.438;2022-10-16T05:57:37;7.85;;;3.08;;
55003;SDS011;40900;52.710;6.438;2022-10-16T06:00:04;6.30;;;3.10;;
55003;SDS011;40900;52.710;6.438;2022-10-16T06:02:30;4.90;;;3.08;;
55003;SDS011;40900;52.710;6.438;2022-10-16T06:04:56;4.57;;;2.92;;
55003;SDS011;40900;52.710;6.438;2022-10-16T06:07:22;4.97;;;2.90;;
55003;SDS011;40900;52.710;6.438;2022-10-16T06:09:52;6.38;;;3.40;;
55003;SDS011;40900;52.710;6.438;2022-10-16T06:12:18;7.90;;;3.53;;
55003;SDS011;40900;52.710;6.438;2022-10-16T06:14:45;6.00;;;3.10;;
55003;SDS011;40900;52.710;6.438;2022-10-16T06:17:12;5.05;;;2.63;;
55003;SDS011;40900;52.710;6.438;2022-10-16T06:19:38;6.38;;;3.10;;
55003;SDS011;40900;52.710;6.438;2022-10-16T06:22:05;7.45;;;3.15;;
55003;SDS011;40900;52.710;6.438;2022-10-16T06:24:31;6.35;;;3.08;;
55003;SDS011;40900;52.710;6.438;2022-10-16T06:26:57;4.53;;;2.95;;
55003;SDS011;40900;52.710;6.438;2022-10-16T06:29:23;4.95;;;2.63;;
55003;SDS011;40900;52.710;6.438;2022-10-16T06:31:49;5.35;;;3.10;;
55003;SDS011;40900;52.710;6.438;2022-10-16T06:34:15;7.03;;;2.55;;
55003;SDS011;40900;52.710;6.438;2022-10-16T06:36:41;6.68;;;2.85;;
55003;SDS011;40900;52.710;6.438;2022-10-16T06:39:08;5.65;;;2.63;;
55003;SDS011;40900;52.710;6.438;2022-10-16T06:41:34;5.82;;;2.60;;
55003;SDS011;40900;52.710;6.438;2022-10-16T06:44:01;7.22;;;2.90;;
55003;SDS011;40900;52.710;6.438;2022-10-16T06:46:27;5.63;;;2.58;;
55003;SDS011;40900;52.710;6.438;2022-10-16T06:48:53;8.55;;;2.90;;
55003;SDS011;40900;52.710;6.438;2022-10-16T06:51:20;6.82;;;2.67;;
55003;SDS011;40900;52.710;6.438;2022-10-16T06:53:50;8.23;;;2.58;;
55003;SDS011;40900;52.710;6.438;2022-10-16T06:56:23;6.50;;;3.42;;
55003;SDS011;40900;52.710;6.438;2022-10-16T06:58:50;5.88;;;2.60;;
55003;SDS011;40900;52.710;6.438;2022-10-16T07:01:17;7.00;;;2.78;;
55003;SDS011;40900;52.710;6.438;2022-10-16T07:03:44;6.60;;;2.70;;
55003;SDS011;40900;52.710;6.438;2022-10-16T07:06:12;7.30;;;2.50;;
55003;SDS011;40900;52.710;6.438;2022-10-16T07:08:39;6.72;;;2.60;;
55003;SDS011;40900;52.710;6.438;2022-10-16T07:11:06;6.55;;;2.70;;
55003;SDS011;40900;52.710;6.438;2022-10-16T07:13:33;6.93;;;2.67;;
55003;SDS011;40900;52.710;6.438;2022-10-16T07:16:04;6.80;;;2.67;;
55003;SDS011;40900;52.710;6.438;2022-10-16T07:18:30;7.20;;;2.95;;
55003;SDS011;40900;52.710;6.438;2022-10-16T07:21:02;6.70;;;2.70;;
55003;SDS011;40900;52.710;6.438;2022-10-16T07:23:28;8.98;;;2.97;;
55003;SDS011;40900;52.710;6.438;2022-10-16T07:25:55;8.95;;;2.60;;
55003;SDS011;40900;52.710;6.438;2022-10-16T07:28:21;6.10;;;2.17;;
55003;SDS011;40900;52.710;6.438;2022-10-16T07:30:47;4.93;;;2.55;;
55003;SDS011;40900;52.710;6.438;2022-10-16T07:33:14;7.13;;;2.92;;
55003;SDS011;40900;52.710;6.438;2022-10-16T07:35:52;9.93;;;2.50;;
55003;SDS011;40900;52.710;6.438;2022-10-16T07:38:18;6.50;;;2.63;;
55003;SDS011;40900;52.710;6.438;2022-10-16T07:40:45;9.07;;;2.25;;
55003;SDS011;40900;52.710;6.438;2022-10-16T07:43:11;8.35;;;3.30;;
55003;SDS011;40900;52.710;6.438;2022-10-16T07:45:37;5.43;;;2.13;;
55003;SDS011;40900;52.710;6.438;2022-10-16T07:48:03;6.13;;;2.10;;
55003;SDS011;40900;52.710;6.438;2022-10-16T07:50:29;8.40;;;1.65;;
55003;SDS011;40900;52.710;6.438;2022-10-16T07:52:55;4.47;;;1.90;;
55003;SDS011;40900;52.710;6.438;2022-10-16T07:55:21;5.15;;;1.55;;
55003;SDS011;40900;52.710;6.438;2022-10-16T07:57:47;3.75;;;1.60;;
55003;SDS011;40900;52.710;6.438;2022-10-16T08:00:13;7.35;;;1.60;;
55003;SDS011;40900;52.710;6.438;2022-10-16T08:02:40;4.85;;;1.60;;
55003;SDS011;40900;52.710;6.438;2022-10-16T08:05:06;4.18;;;1.40;;
55003;SDS011;40900;52.710;6.438;2022-10-16T08:07:32;4.65;;;1.48;;
55003;SDS011;40900;52.710;6.438;2022-10-16T08:09:59;3.28;;;1.55;;
55003;SDS011;40900;52.710;6.438;2022-10-16T08:12:25;9.35;;;2.00;;
55003;SDS011;40900;52.710;6.438;2022-10-16T08:14:51;5.85;;;2.15;;
55003;SDS011;40900;52.710;6.438;2022-10-16T08:17:17;5.55;;;2.35;;
55003;SDS011;40900;52.710;6.438;2022-10-16T08:19:45;4.57;;;2.30;;
55003;SDS011;40900;52.710;6.438;2022-10-16T08:22:11;7.75;;;3.03;;
55003;SDS011;40900;52.710;6.438;2022-10-16T08:24:37;8.38;;;2.90;;
55003;SDS011;40900;52.710;6.438;2022-10-16T08:27:03;7.05;;;2.80;;
55003;SDS011;40900;52.710;6.438;2022-10-16T08:29:29;8.45;;;2.70;;
55003;SDS011;40900;52.710;6.438;2022-10-16T08:31:55;5.10;;;2.30;;
55003;SDS011;40900;52.710;6.438;2022-10-16T08:34:21;6.82;;;3.00;;
55003;SDS011;40900;52.710;6.438;2022-10-16T08:36:47;4.97;;;2.70;;
55003;SDS011;40900;52.710;6.438;2022-10-16T08:39:13;8.85;;;3.22;;
55003;SDS011;40900;52.710;6.438;2022-10-16T08:49:35;8.82;;;2.72;;
55003;SDS011;40900;52.710;6.438;2022-10-16T08:52:02;7.88;;;2.88;;
55003;SDS011;40900;52.710;6.438;2022-10-16T08:54:29;10.52;;;2.65;;
55003;SDS011;40900;52.710;6.438;2022-10-16T08:57:11;5.20;;;2.20;;
55003;SDS011;40900;52.710;6.438;2022-10-16T08:59:39;4.90;;;2.20;;
55003;SDS011;40900;52.710;6.438;2022-10-16T09:12:29;7.93;;;2.17;;
55003;SDS011;40900;52.710;6.438;2022-10-16T09:17:30;11.07;;;2.42;;
55003;SDS011;40900;52.710;6.438;2022-10-16T09:22:39;11.52;;;2.45;;
55003;SDS011;40900;52.710;6.438;2022-10-16T09:25:13;6.47;;;2.10;;
55003;SDS011;40900;52.710;6.438;2022-10-16T09:27:39;9.38;;;2.30;;
55003;SDS011;40900;52.710;6.438;2022-10-16T09:30:13;8.38;;;2.35;;
55003;SDS011;40900;52.710;6.438;2022-10-16T09:32:40;8.82;;;2.35;;
55003;SDS011;40900;52.710;6.438;2022-10-16T09:35:09;8.15;;;2.75;;
55003;SDS011;40900;52.710;6.438;2022-10-16T09:37:36;8.70;;;2.55;;
55003;SDS011;40900;52.710;6.438;2022-10-16T09:40:03;10.88;;;2.72;;
55003;SDS011;40900;52.710;6.438;2022-10-16T09:42:32;10.20;;;2.58;;
55003;SDS011;40900;52.710;6.438;2022-10-16T09:45:00;9.60;;;3.00;;
55003;SDS011;40900;52.710;6.438;2022-10-16T09:47:27;11.15;;;3.05;;
55003;SDS011;40900;52.710;6.438;2022-10-16T09:49:58;10.15;;;2.83;;
55003;SDS011;40900;52.710;6.438;2022-10-16T09:52:27;11.55;;;2.20;;
55003;SDS011;40900;52.710;6.438;2022-10-16T09:54:54;11.25;;;2.53;;
55003;SDS011;40900;52.710;6.438;2022-10-16T09:57:21;10.00;;;2.40;;
55003;SDS011;40900;52.710;6.438;2022-10-16T09:59:53;9.15;;;2.17;;
55003;SDS011;40900;52.710;6.438;2022-10-16T10:02:38;10.05;;;2.50;;
55003;SDS011;40900;52.710;6.438;2022-10-16T10:05:05;8.60;;;2.47;;
55003;SDS011;40900;52.710;6.438;2022-10-16T10:07:32;9.40;;;2.50;;
55003;SDS011;40900;52.710;6.438;2022-10-16T10:09:59;9.68;;;2.33;;
55003;SDS011;40900;52.710;6.438;2022-10-16T10:12:29;8.45;;;2.20;;
55003;SDS011;40900;52.710;6.438;2022-10-16T10:14:57;8.43;;;2.20;;
55003;SDS011;40900;52.710;6.438;2022-10-16T10:17:24;11.00;;;3.13;;
55003;SDS011;40900;52.710;6.438;2022-10-16T10:27:21;12.13;;;2.30;;
55003;SDS011;40900;52.710;6.438;2022-10-16T10:35:25;10.48;;;2.63;;
55003;SDS011;40900;52.710;6.438;2022-10-16T10:46:14;10.77;;;2.58;;
55003;SDS011;40900;52.710;6.438;2022-10-16T10:49:09;11.48;;;3.03;;
55003;SDS011;40900;52.710;6.438;2022-10-16T10:54:27;14.18;;;2.90;;
55003;SDS011;40900;52.710;6.438;2022-10-16T10:57:33;12.35;;;2.70;;
55003;SDS011;40900;52.710;6.438;2022-10-16T11:03:13;8.40;;;2.60;;
55003;SDS011;40900;52.710;6.438;2022-10-16T11:05:49;12.45;;;2.63;;
55003;SDS011;40900;52.710;6.438;2022-10-16T11:08:34;12.18;;;2.63;;
55003;SDS011;40900;52.710;6.438;2022-10-16T11:11:08;11.80;;;2.75;;
55003;SDS011;40900;52.710;6.438;2022-10-16T11:16:40;10.68;;;2.60;;
55003;SDS011;40900;52.710;6.438;2022-10-16T11:24:50;11.45;;;2.50;;
55003;SDS011;40900;52.710;6.438;2022-10-16T11:27:22;12.48;;;2.75;;
55003;SDS011;40900;52.710;6.438;2022-10-16T11:30:02;10.35;;;3.03;;
55003;SDS011;40900;52.710;6.438;2022-10-16T11:32:49;10.70;;;2.38;;
55003;SDS011;40900;52.710;6.438;2022-10-16T11:35:22;11.00;;;2.75;;
55003;SDS011;40900;52.710;6.438;2022-10-16T11:38:07;11.50;;;2.53;;
55003;SDS011;40900;52.710;6.438;2022-10-16T11:40:40;8.43;;;2.30;;
55003;SDS011;40900;52.710;6.438;2022-10-16T11:43:12;11.05;;;3.22;;
55003;SDS011;40900;52.710;6.438;2022-10-16T11:45:43;11.73;;;2.80;;
55003;SDS011;40900;52.710;6.438;2022-10-16T11:50:50;11.05;;;2.72;;
55003;SDS011;40900;52.710;6.438;2022-10-16T11:53:50;10.75;;;2.15;;
55003;SDS011;40900;52.710;6.438;2022-10-16T11:56:39;14.82;;;2.78;;
55003;SDS011;40900;52.710;6.438;2022-10-16T11:59:08;12.20;;;2.80;;
55003;SDS011;40900;52.710;6.438;2022-10-16T12:07:32;19.83;;;3.20;;
55003;SDS011;40900;52.710;6.438;2022-10-16T12:10:17;13.45;;;3.25;;
55003;SDS011;40900;52.710;6.438;2022-10-16T12:12:49;11.60;;;2.75;;
55003;SDS011;40900;52.710;6.438;2022-10-16T12:17:51;11.23;;;2.85;;
55003;SDS011;40900;52.710;6.438;2022-10-16T12:25:33;14.30;;;2.92;;
55003;SDS011;40900;52.710;6.438;2022-10-16T12:30:41;12.35;;;2.70;;
55003;SDS011;40900;52.710;6.438;2022-10-16T12:33:23;11.90;;;2.83;;
55003;SDS011;40900;52.710;6.438;2022-10-16T12:35:54;13.50;;;2.88;;
55003;SDS011;40900;52.710;6.438;2022-10-16T12:38:21;9.18;;;2.78;;
55003;SDS011;40900;52.710;6.438;2022-10-16T12:43:51;11.75;;;2.70;;
55003;SDS011;40900;52.710;6.438;2022-10-16T12:48:43;12.25;;;2.83;;
55003;SDS011;40900;52.710;6.438;2022-10-16T12:51:21;11.25;;;2.83;;
55003;SDS011;40900;52.710;6.438;2022-10-16T12:54:02;11.63;;;2.45;;
55003;SDS011;40900;52.710;6.438;2022-10-16T12:59:31;13.23;;;2.67;;
55003;SDS011;40900;52.710;6.438;2022-10-16T13:05:09;16.35;;;3.28;;
55003;SDS011;40900;52.710;6.438;2022-10-16T13:08:01;9.30;;;2.92;;
55003;SDS011;40900;52.710;6.438;2022-10-16T13:16:10;14.55;;;3.13;;
55003;SDS011;40900;52.710;6.438;2022-10-16T13:18:42;9.75;;;2.20;;
55003;SDS011;40900;52.710;6.438;2022-10-16T13:29:41;13.43;;;2.75;;
55003;SDS011;40900;52.710;6.438;2022-10-16T13:32:07;11.60;;;2.58;;
55003;SDS011;40900;52.710;6.438;2022-10-16T13:34:44;12.40;;;2.30;;
55003;SDS011;40900;52.710;6.438;2022-10-16T13:37:18;7.30;;;1.75;;
55003;SDS011;40900;52.710;6.438;2022-10-16T13:39:46;11.47;;;2.47;;
55003;SDS011;40900;52.710;6.438;2022-10-16T13:42:14;11.40;;;2.60;;
55003;SDS011;40900;52.710;6.438;2022-10-16T13:44:52;9.23;;;1.77;;
55003;SDS011;40900;52.710;6.438;2022-10-16T13:47:22;9.05;;;2.45;;
55003;SDS011;40900;52.710;6.438;2022-10-16T13:50:04;9.73;;;2.30;;
55003;SDS011;40900;52.710;6.438;2022-10-16T13:52:31;10.90;;;2.35;;
55003;SDS011;40900;52.710;6.438;2022-10-16T13:54:57;7.07;;;2.28;;
55003;SDS011;40900;52.710;6.438;2022-10-16T13:57:24;9.23;;;2.40;;
55003;SDS011;40900;52.710;6.438;2022-10-16T13:59:50;10.25;;;2.03;;
55003;SDS011;40900;52.710;6.438;2022-10-16T14:05:02;9.60;;;2.03;;
55003;SDS011;40900;52.710;6.438;2022-10-16T14:07:33;10.63;;;2.60;;
55003;SDS011;40900;52.710;6.438;2022-10-16T14:10:01;11.95;;;2.30;;
55003;SDS011;40900;52.710;6.438;2022-10-16T14:12:32;9.55;;;2.30;;
55003;SDS011;40900;52.710;6.438;2022-10-16T14:14:59;10.60;;;2.28;;
55003;SDS011;40900;52.710;6.438;2022-10-16T14:17:26;10.15;;;2.35;;
55003;SDS011;40900;52.710;6.438;2022-10-16T14:19:55;8.50;;;2.47;;
55003;SDS011;40900;52.710;6.438;2022-10-16T14:22:36;10.82;;;2.20;;
55003;SDS011;40900;52.710;6.438;2022-10-16T14:33:23;9.40;;;2.33;;
55003;SDS011;40900;52.710;6.438;2022-10-16T14:38:41;13.35;;;2.13;;
55003;SDS011;40900;52.710;6.438;2022-10-16T14:41:13;10.10;;;2.30;;
55003;SDS011;40900;52.710;6.438;2022-10-16T14:43:40;11.52;;;2.30;;
55003;SDS011;40900;52.710;6.438;2022-10-16T14:46:18;12.52;;;2.50;;
55003;SDS011;40900;52.710;6.438;2022-10-16T14:48:56;10.77;;;2.33;;
55003;SDS011;40900;52.710;6.438;2022-10-16T14:51:45;9.07;;;2.15;;
55003;SDS011;40900;52.710;6.438;2022-10-16T14:54:11;9.77;;;2.15;;
55003;SDS011;40900;52.710;6.438;2022-10-16T14:56:43;9.27;;;2.72;;
55003;SDS011;40900;52.710;6.438;2022-10-16T15:02:01;8.68;;;2.72;;
55003;SDS011;40900;52.710;6.438;2022-10-16T15:04:41;10.95;;;2.50;;
55003;SDS011;40900;52.710;6.438;2022-10-16T15:07:07;14.18;;;2.47;;
55003;SDS011;40900;52.710;6.438;2022-10-16T15:09:33;7.22;;;2.15;;
55003;SDS011;40900;52.710;6.438;2022-10-16T15:11:59;10.23;;;2.17;;
55003;SDS011;40900;52.710;6.438;2022-10-16T15:14:25;11.63;;;2.60;;
55003;SDS011;40900;52.710;6.438;2022-10-16T15:16:50;8.82;;;2.65;;
55003;SDS011;40900;52.710;6.438;2022-10-16T15:19:16;10.75;;;2.20;;
55003;SDS011;40900;52.710;6.438;2022-10-16T15:21:41;13.18;;;2.33;;
55003;SDS011;40900;52.710;6.438;2022-10-16T15:24:09;9.02;;;2.25;;
55003;SDS011;40900;52.710;6.438;2022-10-16T15:26:37;8.70;;;2.33;;
55003;SDS011;40900;52.710;6.438;2022-10-16T15:29:04;13.15;;;2.30;;
55003;SDS011;40900;52.710;6.438;2022-10-16T15:31:30;9.93;;;2.30;;
55003;SDS011;40900;52.710;6.438;2022-10-16T15:33:56;7.25;;;2.13;;
55003;SDS011;40900;52.710;6.438;2022-10-16T15:36:30;14.20;;;2.88;;
55003;SDS011;40900;52.710;6.438;2022-10-16T15:39:01;13.02;;;2.70;;
55003;SDS011;40900;52.710;6.438;2022-10-16T15:41:36;9.45;;;2.47;;
55003;SDS011;40900;52.710;6.438;2022-10-16T15:44:03;9.63;;;2.47;;
55003;SDS011;40900;52.710;6.438;2022-10-16T15:46:28;12.32;;;2.95;;
55003;SDS011;40900;52.710;6.438;2022-10-16T15:48:57;10.25;;;2.40;;
55003;SDS011;40900;52.710;6.438;2022-10-16T15:51:23;13.65;;;2.60;;
55003;SDS011;40900;52.710;6.438;2022-10-16T15:53:53;10.07;;;2.92;;
55003;SDS011;40900;52.710;6.438;2022-10-16T15:56:21;10.07;;;2.38;;
55003;SDS011;40900;52.710;6.438;2022-10-16T15:58:48;16.50;;;3.15;;
55003;SDS011;40900;52.710;6.438;2022-10-16T16:01:13;15.00;;;2.70;;
55003;SDS011;40900;52.710;6.438;2022-10-16T16:03:39;13.80;;;3.33;;
55003;SDS011;40900;52.710;6.438;2022-10-16T16:06:08;16.30;;;2.80;;
55003;SDS011;40900;52.710;6.438;2022-10-16T16:08:36;12.98;;;2.90;;
55003;SDS011;40900;52.710;6.438;2022-10-16T16:13:35;12.50;;;2.95;;
55003;SDS011;40900;52.710;6.438;2022-10-16T16:16:07;16.75;;;2.88;;
55003;SDS011;40900;52.710;6.438;2022-10-16T16:18:33;13.77;;;3.17;;
55003;SDS011;40900;52.710;6.438;2022-10-16T16:20:59;16.75;;;7.07;;
55003;SDS011;40900;52.710;6.438;2022-10-16T16:23:25;18.35;;;6.90;;
55003;SDS011;40900;52.710;6.438;2022-10-16T16:26:10;16.92;;;5.95;;
55003;SDS011;40900;52.710;6.438;2022-10-16T16:28:37;12.63;;;3.67;;
55003;SDS011;40900;52.710;6.438;2022-10-16T16:31:03;8.93;;;3.42;;
55003;SDS011;40900;52.710;6.438;2022-10-16T16:33:29;13.65;;;3.42;;
55003;SDS011;40900;52.710;6.438;2022-10-16T16:35:57;12.23;;;3.80;;
55003;SDS011;40900;52.710;6.438;2022-10-16T16:38:27;12.38;;;3.10;;
55003;SDS011;40900;52.710;6.438;2022-10-16T16:40:53;12.48;;;3.28;;
55003;SDS011;40900;52.710;6.438;2022-10-16T16:43:22;10.27;;;3.03;;
55003;SDS011;40900;52.710;6.438;2022-10-16T16:45:48;14.23;;;3.30;;
55003;SDS011;40900;52.710;6.438;2022-10-16T16:48:14;14.05;;;4.10;;
55003;SDS011;40900;52.710;6.438;2022-10-16T16:50:40;12.10;;;3.67;;
55003;SDS011;40900;52.710;6.438;2022-10-16T16:53:06;13.13;;;3.30;;
55003;SDS011;40900;52.710;6.438;2022-10-16T16:55:32;9.15;;;3.08;;
55003;SDS011;40900;52.710;6.438;2022-10-16T16:57:58;14.82;;;4.43;;
55003;SDS011;40900;52.710;6.438;2022-10-16T17:00:24;13.80;;;4.30;;
55003;SDS011;40900;52.710;6.438;2022-10-16T17:02:50;18.10;;;6.53;;
55003;SDS011;40900;52.710;6.438;2022-10-16T17:05:16;14.93;;;4.50;;
55003;SDS011;40900;52.710;6.438;2022-10-16T17:07:43;12.80;;;5.30;;
55003;SDS011;40900;52.710;6.438;2022-10-16T17:10:08;12.60;;;3.17;;
55003;SDS011;40900;52.710;6.438;2022-10-16T17:12:35;10.30;;;3.35;;
55003;SDS011;40900;52.710;6.438;2022-10-16T17:15:01;9.38;;;3.20;;